createdAt,value
2022-12-11T00:01:30.708Z,79.84
2022-12-11T00:03:57.266Z,79.76
2022-12-11T00:06:23.876Z,79.89
2022-12-11T00:08:55.403Z,79.36
2022-12-11T00:11:23.462Z,79.53
2022-12-11T00:13:50.174Z,79.87
2022-12-11T00:16:16.815Z,79.53
2022-12-11T00:18:43.914Z,79.61
2022-12-11T00:21:13.983Z,79.41
2022-12-11T00:23:41.037Z,79.36
2022-12-11T00:26:12.219Z,79.29
2022-12-11T00:28:39.126Z,79.00
2022-12-11T00:31:07.704Z,79.07
2022-12-11T00:33:34.588Z,78.19
2022-12-11T00:36:01.218Z,77.89
2022-12-11T00:38:27.813Z,78.34
2022-12-11T00:40:59.452Z,78.67
2022-12-11T00:43:26.030Z,78.92
2022-12-11T00:45:52.814Z,78.67
2022-12-11T00:48:19.426Z,77.92
2022-12-11T00:50:46.481Z,78.04
2022-12-11T00:53:13.104Z,78.18
2022-12-11T00:55:41.726Z,78.40
2022-12-11T00:58:09.311Z,78.52
2022-12-11T01:00:36.259Z,78.56
2022-12-11T01:03:03.251Z,78.54
2022-12-11T01:05:29.885Z,78.08
2022-12-11T01:07:56.789Z,77.81
2022-12-11T01:10:26.414Z,78.29
2022-12-11T01:13:15.494Z,78.50
2022-12-11T01:15:44.855Z,78.99
2022-12-11T01:18:13.675Z,79.36
2022-12-11T01:20:42.505Z,79.81
2022-12-11T01:23:13.104Z,80.11
2022-12-11T01:25:39.875Z,80.39
2022-12-11T01:28:07.374Z,80.39
2022-12-11T01:30:34.300Z,80.51
2022-12-11T01:33:01.119Z,80.67
2022-12-11T01:35:28.644Z,80.73
2022-12-11T01:37:55.747Z,80.77
2022-12-11T01:40:22.646Z,80.78
2022-12-11T01:42:49.387Z,80.63
2022-12-11T01:45:23.833Z,80.82
2022-12-11T01:48:00.853Z,81.09
2022-12-11T01:50:29.184Z,81.13
2022-12-11T01:52:55.782Z,81.30
2022-12-11T01:55:22.800Z,81.06
2022-12-11T01:57:52.779Z,80.66
2022-12-11T02:00:20.829Z,80.90
2022-12-11T02:02:47.727Z,80.64
2022-12-11T02:05:14.436Z,79.79
2022-12-11T02:07:46.446Z,80.02
2022-12-11T02:10:13.567Z,80.11
2022-12-11T02:13:07.654Z,80.27
2022-12-11T02:15:53.536Z,80.08
2022-12-11T02:18:27.923Z,80.53
2022-12-11T02:21:21.408Z,80.74
2022-12-11T02:24:06.815Z,80.62
2022-12-11T02:26:55.633Z,80.86
2022-12-11T02:29:57.286Z,80.61
2022-12-11T02:32:30.101Z,81.09
2022-12-11T02:35:04.742Z,80.75
2022-12-11T02:37:33.440Z,80.98
2022-12-11T02:40:00.356Z,80.87
2022-12-11T02:42:32.469Z,81.29
2022-12-11T02:45:01.015Z,81.18
2022-12-11T02:47:30.023Z,80.72
2022-12-11T02:49:59.048Z,80.61
2022-12-11T02:52:29.675Z,80.91
2022-12-11T02:54:58.958Z,80.88
2022-12-11T02:57:33.407Z,80.90
2022-12-11T03:00:00.005Z,80.81
2022-12-11T03:02:26.986Z,80.76
2022-12-11T03:04:54.221Z,80.92
2022-12-11T03:07:27.566Z,80.57
2022-12-11T03:09:54.687Z,80.13
2022-12-11T03:12:29.836Z,80.50
2022-12-11T03:14:59.585Z,80.54
2022-12-11T03:17:38.684Z,80.74
2022-12-11T03:20:14.900Z,80.12
2022-12-11T03:22:54.742Z,80.17
2022-12-11T03:25:26.044Z,79.81
2022-12-11T03:28:40.697Z,79.14
2022-12-11T03:31:11.181Z,79.27
2022-12-11T03:33:42.029Z,79.33
2022-12-11T03:36:17.744Z,79.51
2022-12-11T03:38:49.349Z,79.61
2022-12-11T03:41:20.072Z,79.68
2022-12-11T03:43:48.477Z,79.23
2022-12-11T03:46:18.333Z,79.28
2022-12-11T03:48:48.361Z,79.54
2022-12-11T03:51:17.263Z,79.05
2022-12-11T03:53:44.810Z,78.87
2022-12-11T03:56:13.827Z,79.26
2022-12-11T03:58:40.392Z,79.12
2022-12-11T04:01:11.297Z,79.11
2022-12-11T04:03:38.914Z,78.37
2022-12-11T04:06:05.674Z,78.42
2022-12-11T04:08:32.252Z,78.78
2022-12-11T04:11:17.140Z,79.27
2022-12-11T04:13:43.807Z,79.03
2022-12-11T04:16:10.439Z,79.09
2022-12-11T04:18:55.906Z,79.10
2022-12-11T04:21:41.049Z,79.11
2022-12-11T04:24:16.899Z,79.03
2022-12-11T04:26:45.735Z,79.13
2022-12-11T04:29:13.000Z,79.26
2022-12-11T04:31:39.587Z,78.50
2022-12-11T04:34:06.470Z,78.16
2022-12-11T04:36:33.075Z,78.64
2022-12-11T04:38:59.625Z,78.49
2022-12-11T04:41:26.317Z,78.64
2022-12-11T04:43:52.874Z,78.79
2022-12-11T04:46:21.729Z,78.55
2022-12-11T04:48:55.470Z,78.26
2022-12-11T04:51:23.834Z,78.42
2022-12-11T04:53:50.494Z,78.46
2022-12-11T04:56:17.218Z,78.30
2022-12-11T04:58:45.031Z,78.62
2022-12-11T05:01:14.243Z,78.10
2022-12-11T05:03:41.068Z,78.53
2022-12-11T05:06:09.105Z,78.19
2022-12-11T05:08:37.935Z,78.36
2022-12-11T05:11:07.923Z,78.31
2022-12-11T05:13:34.707Z,78.08
2022-12-11T05:16:04.536Z,78.11
2022-12-11T05:18:31.197Z,77.88
2022-12-11T05:21:02.756Z,78.43
2022-12-11T05:23:29.711Z,78.29
2022-12-11T05:25:59.114Z,78.40
2022-12-11T05:28:29.865Z,77.99
2022-12-11T05:31:00.886Z,78.14
2022-12-11T05:33:28.434Z,78.18
2022-12-11T05:35:55.208Z,77.89
2022-12-11T05:38:22.718Z,77.65
2022-12-11T05:40:56.893Z,78.02
2022-12-11T05:43:23.633Z,77.89
2022-12-11T05:45:50.207Z,78.19
2022-12-11T05:48:16.765Z,77.84
2022-12-11T05:50:43.393Z,77.53
2022-12-11T05:53:09.991Z,77.56
2022-12-11T05:55:36.593Z,77.78
2022-12-11T05:58:03.170Z,77.99
2022-12-11T06:00:35.697Z,80.78
2022-12-11T06:03:02.877Z,80.08
2022-12-11T06:05:29.498Z,81.18
2022-12-11T06:07:56.138Z,77.86
2022-12-11T06:10:22.769Z,74.00
2022-12-11T06:12:49.397Z,73.34
2022-12-11T06:15:15.953Z,73.56
2022-12-11T06:17:42.474Z,73.50
2022-12-11T06:20:09.238Z,73.48
2022-12-11T06:22:35.885Z,73.32
2022-12-11T06:25:02.441Z,73.46
2022-12-11T06:27:28.955Z,73.80
2022-12-11T06:29:56.138Z,74.33
2022-12-11T06:32:22.948Z,74.25
2022-12-11T06:34:49.548Z,74.35
2022-12-11T06:37:16.204Z,74.76
2022-12-11T06:39:42.760Z,74.95
2022-12-11T06:42:09.270Z,74.59
2022-12-11T06:44:35.879Z,74.95
2022-12-11T06:47:03.743Z,75.34
2022-12-11T06:49:30.584Z,75.23
2022-12-11T06:51:57.175Z,75.35
2022-12-11T06:54:27.977Z,75.00
2022-12-11T06:56:54.554Z,75.19
2022-12-11T06:59:21.204Z,75.19
2022-12-11T07:01:47.967Z,75.35
2022-12-11T07:04:14.637Z,75.48
2022-12-11T07:06:41.388Z,75.58
2022-12-11T07:09:08.240Z,75.36
2022-12-11T07:11:34.786Z,75.62
2022-12-11T07:14:01.439Z,75.46
2022-12-11T07:16:28.174Z,75.32
2022-12-11T07:18:54.776Z,75.42
2022-12-11T07:21:21.695Z,75.53
2022-12-11T07:23:49.278Z,75.34
2022-12-11T07:26:18.880Z,75.24
2022-12-11T07:28:46.019Z,75.30
2022-12-11T07:31:15.776Z,74.95
2022-12-11T07:33:42.721Z,75.00
2022-12-11T07:36:11.586Z,74.93
2022-12-11T07:38:38.924Z,75.42
2022-12-11T07:41:08.181Z,75.08
2022-12-11T07:43:35.699Z,75.00
2022-12-11T07:46:07.490Z,75.16
2022-12-11T07:48:38.024Z,75.61
2022-12-11T07:51:09.008Z,75.93
2022-12-11T07:53:35.673Z,75.79
2022-12-11T07:56:02.297Z,75.76
2022-12-11T07:58:28.865Z,76.01
2022-12-11T08:00:55.516Z,75.87
2022-12-11T08:03:22.126Z,76.08
2022-12-11T08:05:50.271Z,75.94
2022-12-11T08:08:17.161Z,76.33
2022-12-11T08:10:43.776Z,76.23
2022-12-11T08:13:10.970Z,76.39
2022-12-11T08:15:38.365Z,76.33
2022-12-11T08:18:05.775Z,76.59
2022-12-11T08:20:32.378Z,76.43
2022-12-11T08:22:59.268Z,76.69
2022-12-11T08:25:25.967Z,76.37
2022-12-11T08:27:52.531Z,76.35
2022-12-11T08:30:19.118Z,76.56
2022-12-11T08:32:45.759Z,76.61
2022-12-11T08:35:12.519Z,76.30
2022-12-11T08:37:40.204Z,76.13
2022-12-11T08:40:07.630Z,76.08
2022-12-11T08:42:34.270Z,76.02
2022-12-11T08:45:00.801Z,76.18
2022-12-11T08:47:27.924Z,76.20
2022-12-11T08:49:54.459Z,76.03
2022-12-11T08:52:21.008Z,75.98
2022-12-11T08:54:48.348Z,76.18
2022-12-11T08:57:15.210Z,75.63
2022-12-11T08:59:41.804Z,76.05
2022-12-11T09:02:11.569Z,75.95
2022-12-11T09:04:38.189Z,75.89
2022-12-11T09:07:04.778Z,75.37
2022-12-11T09:09:31.349Z,75.83
2022-12-11T09:11:57.929Z,75.61
2022-12-11T09:14:24.437Z,75.69
2022-12-11T09:16:51.127Z,75.19
2022-12-11T09:19:17.894Z,75.33
2022-12-11T09:21:45.175Z,75.13
2022-12-11T09:24:13.576Z,74.63
2022-12-11T09:26:40.511Z,74.50
2022-12-11T09:29:07.827Z,74.76
2022-12-11T09:31:36.593Z,74.97
2022-12-11T09:34:09.241Z,75.01
2022-12-11T09:36:37.976Z,74.87
2022-12-11T09:39:06.861Z,74.92
2022-12-11T09:41:38.152Z,75.24
2022-12-11T09:44:19.650Z,75.04
2022-12-11T09:46:47.347Z,74.78
2022-12-11T09:49:42.926Z,74.51
2022-12-11T09:52:18.328Z,74.82
2022-12-11T09:54:57.785Z,74.69
2022-12-11T09:57:43.314Z,74.67
2022-12-11T10:00:11.473Z,74.54
2022-12-11T10:03:22.716Z,74.51
2022-12-11T10:06:09.689Z,74.45
2022-12-11T10:08:45.002Z,74.85
2022-12-11T10:11:32.871Z,74.67
2022-12-11T10:14:25.416Z,74.65
2022-12-11T10:17:03.581Z,74.86
2022-12-11T10:19:32.249Z,75.02
2022-12-11T10:22:00.857Z,75.41
2022-12-11T10:25:10.228Z,74.82
2022-12-11T10:27:35.527Z,74.62
2022-12-11T10:30:20.717Z,74.51
2022-12-11T10:33:08.705Z,74.69
2022-12-11T10:35:41.981Z,74.84
2022-12-11T10:38:23.863Z,74.40
2022-12-11T10:40:55.243Z,73.87
2022-12-11T10:43:42.260Z,74.00
2022-12-11T10:46:37.269Z,73.91
2022-12-11T10:49:03.856Z,73.52
2022-12-11T10:51:30.334Z,73.43
2022-12-11T10:54:16.702Z,73.75
2022-12-11T10:56:47.174Z,73.60
2022-12-11T10:59:24.530Z,72.82
2022-12-11T11:01:51.457Z,72.95
2022-12-11T11:04:30.056Z,72.51
2022-12-11T11:07:24.873Z,72.57
2022-12-11T11:10:03.767Z,72.47
2022-12-11T11:12:30.409Z,72.11
2022-12-11T11:15:11.914Z,71.92
2022-12-11T11:17:55.128Z,71.94
2022-12-11T11:20:25.912Z,71.40
2022-12-11T11:22:55.981Z,70.94
2022-12-11T11:25:28.670Z,70.69
2022-12-11T11:27:55.182Z,71.15
2022-12-11T11:30:28.723Z,70.19
2022-12-11T11:32:58.189Z,70.20
2022-12-11T11:35:27.876Z,70.24
2022-12-11T11:38:16.010Z,70.41
2022-12-11T11:40:51.208Z,70.07
2022-12-11T11:43:21.079Z,69.76
2022-12-11T11:46:05.605Z,68.78
2022-12-11T11:49:00.929Z,68.34
2022-12-11T11:51:31.515Z,67.28
2022-12-11T11:54:01.915Z,66.73
2022-12-11T11:56:37.545Z,67.19
2022-12-11T11:59:17.435Z,67.57
2022-12-11T12:01:44.102Z,67.93
2022-12-11T12:04:11.690Z,68.19
2022-12-11T12:06:54.443Z,67.82
2022-12-11T12:09:55.411Z,67.99
2022-12-11T12:12:49.535Z,68.23
2022-12-11T12:15:34.305Z,67.42
2022-12-11T12:18:15.689Z,67.66
2022-12-11T12:20:50.560Z,67.64
2022-12-11T12:23:23.207Z,68.38
2022-12-11T12:26:17.221Z,68.61
2022-12-11T12:28:49.016Z,68.91
2022-12-11T12:31:24.849Z,68.92
2022-12-11T12:34:28.904Z,69.16
2022-12-11T12:37:07.595Z,69.32
2022-12-11T12:39:57.346Z,69.15
2022-12-11T12:42:32.849Z,70.02
2022-12-11T12:45:08.945Z,70.41
2022-12-11T12:47:36.779Z,70.78
2022-12-11T12:50:04.656Z,71.06
2022-12-11T12:52:35.349Z,71.08
2022-12-11T12:55:18.972Z,71.45
2022-12-11T12:57:52.868Z,71.66
2022-12-11T13:00:39.544Z,71.77
2022-12-11T13:03:20.434Z,71.84
2022-12-11T13:06:03.353Z,71.64
2022-12-11T13:08:50.245Z,72.34
2022-12-11T13:11:20.758Z,72.28
2022-12-11T13:14:22.414Z,72.24
2022-12-11T13:16:52.084Z,72.49
2022-12-11T13:19:27.550Z,72.60
2022-12-11T13:22:06.343Z,72.41
2022-12-11T13:24:34.124Z,72.69
2022-12-11T13:27:12.245Z,72.55
2022-12-11T13:29:41.275Z,72.32
2022-12-11T13:32:07.797Z,72.81
2022-12-11T13:34:37.774Z,73.00
2022-12-11T13:37:05.892Z,73.06
2022-12-11T13:39:35.644Z,72.93
2022-12-11T13:42:05.670Z,73.42
2022-12-11T13:44:41.720Z,73.44
2022-12-11T13:47:14.437Z,73.51
2022-12-11T13:49:44.214Z,73.30
2022-12-11T13:52:23.365Z,72.58
2022-12-11T13:54:53.397Z,72.96
2022-12-11T13:57:31.093Z,72.98
2022-12-11T13:59:59.616Z,73.02
2022-12-11T14:02:34.190Z,72.78
2022-12-11T14:05:04.277Z,73.13
2022-12-11T14:07:34.982Z,73.15
2022-12-11T14:10:15.904Z,73.07
2022-12-11T14:13:04.372Z,73.18
2022-12-11T14:15:33.869Z,72.75
2022-12-11T14:18:01.049Z,72.30
2022-12-11T14:20:32.857Z,72.40
2022-12-11T14:23:05.586Z,72.70
2022-12-11T14:25:32.181Z,73.08
2022-12-11T14:27:58.831Z,72.91
2022-12-11T14:30:31.677Z,72.94
2022-12-11T14:33:02.724Z,73.08
2022-12-11T14:35:41.812Z,72.80
2022-12-11T14:38:21.872Z,73.11
2022-12-11T14:40:53.557Z,73.48
2022-12-11T14:43:38.379Z,73.62
2022-12-11T14:46:13.925Z,73.67
2022-12-11T14:48:46.584Z,73.63
2022-12-11T14:51:17.380Z,74.12
2022-12-11T14:53:46.646Z,74.05
2022-12-11T14:56:23.408Z,74.62
2022-12-11T14:59:09.322Z,73.68
2022-12-11T15:01:37.544Z,74.09
2022-12-11T15:04:16.194Z,74.30
2022-12-11T15:06:47.982Z,74.12
2022-12-11T15:09:21.749Z,74.51
2022-12-11T15:11:50.995Z,74.33
2022-12-11T15:14:21.433Z,74.17
2022-12-11T15:16:49.295Z,73.91
2022-12-11T15:19:24.104Z,74.64
2022-12-11T15:21:51.616Z,74.29
2022-12-11T15:24:47.182Z,74.47
2022-12-11T15:27:27.903Z,74.11
2022-12-11T15:29:54.538Z,74.59
2022-12-11T15:32:21.854Z,74.57
2022-12-11T15:34:57.037Z,74.42
2022-12-11T15:37:29.371Z,74.04
2022-12-11T15:39:57.871Z,74.24
2022-12-11T15:42:26.875Z,74.03
2022-12-11T15:44:55.532Z,74.08
2022-12-11T15:47:24.813Z,74.12
2022-12-11T15:49:57.152Z,74.14
2022-12-11T15:52:24.017Z,74.34
2022-12-11T15:54:50.688Z,73.95
2022-12-11T15:57:21.271Z,74.10
2022-12-11T15:59:49.727Z,74.08
2022-12-11T16:02:17.446Z,73.84
2022-12-11T16:04:44.065Z,73.97
2022-12-11T16:07:22.650Z,73.58
2022-12-11T16:09:49.643Z,73.89
2022-12-11T16:12:16.613Z,73.77
2022-12-11T16:14:45.130Z,73.68
2022-12-11T16:17:13.892Z,73.97
2022-12-11T16:19:41.975Z,74.14
2022-12-11T16:22:10.166Z,74.15
2022-12-11T16:24:37.725Z,74.37
2022-12-11T16:27:05.489Z,74.60
2022-12-11T16:29:40.554Z,74.36
2022-12-11T16:32:08.514Z,74.18
2022-12-11T16:34:36.475Z,74.27
2022-12-11T16:37:04.066Z,74.36
2022-12-11T16:39:30.653Z,74.34
2022-12-11T16:41:57.209Z,74.39
2022-12-11T16:44:25.860Z,74.21
2022-12-11T16:46:52.796Z,74.19
2022-12-11T16:49:20.564Z,74.49
2022-12-11T16:51:47.215Z,74.46
2022-12-11T16:54:13.797Z,74.09
2022-12-11T16:56:40.426Z,74.31
2022-12-11T16:59:07.484Z,74.92
2022-12-11T17:01:34.808Z,74.40
2022-12-11T17:04:01.519Z,73.99
2022-12-11T17:06:29.815Z,74.08
2022-12-11T17:08:57.041Z,74.18
2022-12-11T17:11:27.157Z,74.30
2022-12-11T17:13:55.684Z,74.04
2022-12-11T17:16:24.947Z,73.98
2022-12-11T17:18:52.564Z,74.03
2022-12-11T17:21:21.223Z,74.20
2022-12-11T17:23:49.358Z,74.36
2022-12-11T17:26:17.131Z,74.32
2022-12-11T17:28:44.060Z,74.52
2022-12-11T17:31:14.410Z,74.78
2022-12-11T17:33:41.239Z,74.54
2022-12-11T17:36:08.739Z,74.44
2022-12-11T17:38:35.860Z,74.88
2022-12-11T17:41:09.466Z,74.48
2022-12-11T17:43:36.181Z,74.76
2022-12-11T17:46:03.808Z,74.54
2022-12-11T17:48:30.732Z,74.05
2022-12-11T17:50:57.403Z,74.29
2022-12-11T17:53:24.593Z,74.57
2022-12-11T17:55:52.188Z,74.54
2022-12-11T17:58:23.292Z,74.73
2022-12-11T18:00:53.284Z,74.91
2022-12-11T18:03:20.970Z,75.19
2022-12-11T18:05:53.028Z,75.30
2022-12-11T18:08:22.381Z,75.32
2022-12-11T18:10:49.245Z,75.14
2022-12-11T18:13:15.945Z,75.51
2022-12-11T18:15:42.590Z,75.41
2022-12-11T18:18:09.963Z,75.68
2022-12-11T18:20:37.677Z,75.50
2022-12-11T18:23:05.260Z,75.83
2022-12-11T18:25:31.889Z,75.89
2022-12-11T18:27:59.701Z,75.55
2022-12-11T18:30:26.966Z,75.77
2022-12-11T18:32:53.645Z,75.18
2022-12-11T18:35:20.398Z,75.24
2022-12-11T18:37:46.969Z,75.87
2022-12-11T18:40:13.530Z,75.53
2022-12-11T18:42:40.142Z,75.67
2022-12-11T18:45:07.517Z,75.72
2022-12-11T18:47:34.107Z,75.76
2022-12-11T18:50:05.779Z,75.80
2022-12-11T18:52:34.409Z,75.77
2022-12-11T18:55:01.133Z,75.77
2022-12-11T18:57:27.676Z,75.52
2022-12-11T18:59:54.386Z,75.62
2022-12-11T19:02:21.831Z,75.57
2022-12-11T19:04:48.909Z,75.88
2022-12-11T19:07:15.479Z,75.79
2022-12-11T19:09:47.605Z,75.75
2022-12-11T19:12:14.836Z,76.11
2022-12-11T19:14:41.568Z,75.87
2022-12-11T19:17:08.162Z,75.85
2022-12-11T19:19:35.866Z,75.25
2022-12-11T19:22:02.500Z,75.43
2022-12-11T19:24:29.087Z,75.23
2022-12-11T19:26:55.644Z,75.73
2022-12-11T19:29:28.285Z,75.83
2022-12-11T19:31:55.849Z,75.44
2022-12-11T19:34:23.097Z,75.35
2022-12-11T19:36:49.938Z,75.65
2022-12-11T19:39:16.915Z,75.54
2022-12-11T19:41:43.824Z,75.71
2022-12-11T19:44:10.693Z,75.80
2022-12-11T19:46:37.957Z,75.87
2022-12-11T19:49:04.917Z,75.83
2022-12-11T19:51:34.174Z,75.60
2022-12-11T19:54:02.943Z,76.04
2022-12-11T19:56:30.053Z,76.05
2022-12-11T19:58:57.101Z,75.87
2022-12-11T20:01:31.138Z,75.76
2022-12-11T20:04:00.686Z,75.66
2022-12-11T20:06:32.527Z,75.86
2022-12-11T20:08:59.169Z,76.31
2022-12-11T20:11:26.419Z,75.90
2022-12-11T20:13:55.606Z,75.97
2022-12-11T20:16:39.554Z,76.32
2022-12-11T20:19:09.768Z,76.35
2022-12-11T20:21:36.364Z,76.79
2022-12-11T20:24:03.082Z,76.92
2022-12-11T20:26:31.899Z,76.72
2022-12-11T20:28:58.606Z,76.44
2022-12-11T20:31:26.273Z,76.80
2022-12-11T20:33:55.749Z,76.63
2022-12-11T20:36:23.418Z,76.32
2022-12-11T20:38:50.692Z,76.59
2022-12-11T20:41:21.023Z,76.34
2022-12-11T20:43:53.267Z,76.08
2022-12-11T20:46:21.746Z,76.21
2022-12-11T20:48:48.981Z,76.55
2022-12-11T20:51:22.391Z,76.19
2022-12-11T20:53:57.613Z,75.72
2022-12-11T20:56:26.346Z,75.97
2022-12-11T20:58:53.097Z,76.03
2022-12-11T21:01:22.815Z,75.96
2022-12-11T21:03:50.127Z,76.11
2022-12-11T21:06:26.796Z,75.97
2022-12-11T21:08:54.101Z,75.93
2022-12-11T21:11:21.510Z,75.71
2022-12-11T21:13:48.071Z,76.03
2022-12-11T21:16:14.809Z,76.13
2022-12-11T21:18:43.477Z,76.05
2022-12-11T21:21:10.627Z,76.19
2022-12-11T21:23:37.293Z,76.03
2022-12-11T21:26:04.271Z,76.05
2022-12-11T21:28:35.406Z,76.11
2022-12-11T21:31:04.265Z,75.80
2022-12-11T21:33:30.893Z,75.98
2022-12-11T21:35:59.517Z,75.94
2022-12-11T21:38:27.220Z,75.84
2022-12-11T21:40:55.453Z,75.98
2022-12-11T21:43:23.459Z,75.89
2022-12-11T21:46:05.713Z,75.68
2022-12-11T21:48:32.933Z,76.12
2022-12-11T21:51:17.790Z,75.88
2022-12-11T21:53:45.230Z,75.78
2022-12-11T21:56:14.329Z,76.03
2022-12-11T21:58:42.346Z,75.84
2022-12-11T22:01:24.395Z,75.83
2022-12-11T22:03:52.388Z,75.75
2022-12-11T22:06:19.200Z,75.74
2022-12-11T22:08:46.718Z,75.79
2022-12-11T22:11:13.966Z,76.00
2022-12-11T22:13:40.535Z,75.70
2022-12-11T22:16:07.203Z,76.17
2022-12-11T22:18:33.841Z,76.16
2022-12-11T22:21:00.814Z,76.07
2022-12-11T22:23:27.491Z,75.91
2022-12-11T22:25:54.521Z,75.79
2022-12-11T22:28:21.086Z,76.25
2022-12-11T22:30:47.731Z,76.16
2022-12-11T22:33:14.725Z,76.35
2022-12-11T22:35:41.452Z,76.09
2022-12-11T22:38:08.044Z,76.53
2022-12-11T22:40:34.710Z,76.62
2022-12-11T22:43:01.274Z,76.85
2022-12-11T22:45:27.789Z,76.68
2022-12-11T22:47:54.391Z,76.76
2022-12-11T22:50:21.032Z,76.61
2022-12-11T22:52:47.605Z,76.60
2022-12-11T22:55:14.791Z,76.39
2022-12-11T22:57:41.415Z,76.38
2022-12-11T23:00:10.895Z,76.71
2022-12-11T23:02:38.385Z,76.68
2022-12-11T23:05:06.337Z,76.63
2022-12-11T23:07:33.311Z,76.39
2022-12-11T23:10:00.026Z,76.39
2022-12-11T23:12:26.615Z,76.32
2022-12-11T23:14:53.200Z,76.40
2022-12-11T23:17:19.768Z,76.28
2022-12-11T23:19:46.767Z,76.70
2022-12-11T23:22:13.943Z,76.72
2022-12-11T23:24:41.316Z,76.49
2022-12-11T23:27:07.926Z,76.27
2022-12-11T23:29:34.494Z,76.25
2022-12-11T23:32:01.181Z,76.12
2022-12-11T23:34:28.156Z,76.38
2022-12-11T23:36:54.719Z,76.42
2022-12-11T23:39:21.302Z,76.30
2022-12-11T23:41:47.845Z,76.25
2022-12-11T23:44:14.497Z,76.09
2022-12-11T23:46:42.668Z,75.86
2022-12-11T23:49:09.255Z,75.88
2022-12-11T23:51:35.850Z,75.68
2022-12-11T23:54:02.475Z,75.95
2022-12-11T23:56:29.652Z,76.18
2022-12-11T23:58:56.769Z,76.02
